This demonstration page uses our WeatherBlox Daily Observations layout. Learn more.

36.17497, -115.13722

Hourly Observations for July 19, 2015

Temp ( °F °C ) Dew Point ( °F °C ) Humidity (%) Winds ( mph kmh ) Pressure ( in mb ) Visibility ( mi km ) Precip ( " mm )
12:53 am 00:53 Clear 75 24 61 16 61 61 SE 7 11 29.97 1015 10 16.09344 0 0
1:53 am 01:53 Clear 75 24 61 16 61 61 NNE 6 9 29.97 1015 10 16.09344 0 0
2:53 am 02:53 Clear 75 24 61 16 61 61 NE 6 9 29.97 1015 10 16.09344 0 0
3:53 am 03:53 Partly Cloudy 75 24 61 16 61 61 E 8 13 29.97 1015 10 16.09344 0 0
4:53 am 04:53 Clear 73 23 63 17 69 69 ESE 5 7 29.97 1015 10 16.09344 0 0
5:53 am 05:53 Sunny 73 23 61 16 65 65 SE 6 9 29.97 1015 10 16.09344 0 0
6:53 am 06:53 Sunny 75 24 63 17 65 65 Calm 30 1016 10 16.09344 0 0
7:53 am 07:53 Sunny 75 24 61 16 61 61 SSE 3 6 30 1016 10 16.09344 0 0
8:53 am 08:53 Sunny 79 26 61 16 54 54 N 7 11 29.97 1015 10 16.09344 0 0
9:53 am 09:53 Mostly Sunny 81 27 59 15 48 48 SSE 7 11 29.97 1015 10 16.09344 0 0
10:53 am 10:53 Sunny 82 28 59 15 45 45 N 3 6 29.97 1015 10 16.09344 0 0
11:53 am 11:53 Sunny 84 29 59 15 43 43 undefined N/A 29.94 1014 10 16.09344 0 0
12:53 pm 12:53 Sunny 88 31 57 14 35 35 E 8 13 29.91 1013 10 16.09344 0 0
1:53 pm 13:53 Sunny 90 32 55 13 31 31 E 5 7 29.91 1013 10 16.09344 0 0
2:53 pm 14:53 Sunny 91 33 54 12 28 28 N 6 9 29.85 1011 10 16.09344 0 0
3:53 pm 15:53 Sunny 91 33 52 11 26 26 SE 7 11 29.83 1010 10 16.09344 0 0
4:53 pm 16:53 Sunny 93 34 52 11 24 24 ESE 7 11 29.8 1009 10 16.09344 0 0
5:53 pm 17:53 Sunny 93 34 48 9 21 21 N 7 11 29.8 1009 10 16.09344 0 0
6:53 pm 18:53 Sunny 91 33 50 10 24 24 Calm 29.8 1009 10 16.09344 0 0
7:53 pm 19:53 Sunny 91 33 54 12 28 28 SE 9 15 29.8 1009 10 16.09344 0 0
8:41 pm 20:41 Clear 86 30 57 14 38 38 S 15 24 29.85 1011 10 16.09344 0 0
8:53 pm 20:53 Clear 86 30 57 14 38 38 S 13 20 29.85 1011 10 16.09344 0 0
9:53 pm 21:53 Clear 86 30 55 13 35 35 SSW 16 26 29.88 1012 10 16.09344 0 0
10:53 pm 22:53 Clear 86 30 55 13 35 35 S 14 22 29.88 1012 10 16.09344 0 0
11:53 pm 23:53 Cloudy 86 30 54 12 33 33 SSW 18 30 29.88 1012 10 16.09344 0 0

Powered by AerisWeather